Flight Track Log - Related Links

Times and Time Zones

All times are in EST time to prevent confusion due to time zone crossing. See the GLF21 flight status page for this flight to view local times or setup timezone preferences in your user account.

Time Position Orientation Groundspeed Altitude Reporting Facility
EST Latitude Longitude Course Direction KTS km/h feet Rate Location/Type
Fri 14:16:06 32.1211 -81.1486 106° East 224 415 2,800  Level Jacksonville Center
Fri 14:19:42 32.0700 -80.9436 173° South 191 354 3,000 276 Climbing Jacksonville Center
Fri 14:23:43 31.8881 -80.9156 212° Southwest 185 343 4,900 811 Climbing Jacksonville Center
Fri 14:27:43 31.7311 -81.0289 79° East 172 319 9,500 499 Climbing Jacksonville Center
Fri 14:32:56 31.7542 -80.8939 28° Northeast 257 476 9,500  Level Jacksonville Center
Fri 14:36:09 31.9586 -80.7647 North 245 454 9,500 25 Level Jacksonville Center
Fri 14:40:57 32.0919 -80.7517 193° South 184 341 9,700 -175 Climbing Jacksonville Center
Fri 14:44:10 31.9197 -80.7997 North 211 391 8,100 -97 Descending Jacksonville Center
Fri 14:48:10 31.9739 -80.7961 26° Northeast 237 439 9,000 222 Climbing Jacksonville Center
Fri 14:51:23 32.1453 -80.6967 42° Northeast 235 435 9,700 53 Climbing Jacksonville Center
Fri 14:55:47 32.2561 -80.5786 212° Southwest 176 327 9,400  Descending Jacksonville Center
Fri 14:59:24 32.1056 -80.6878 14° North 170 315 9,700 -29 Climbing Jacksonville Center
Fri 15:02:37 32.1803 -80.6664 62° Northeast 203 377 9,200 -321 Descending Jacksonville Center
Fri 15:07:49 32.2547 -80.5000 235° Southwest 212 393 7,000 -131 Descending Jacksonville Center
Fri 15:11:01 32.1572 -80.6619 312° West 193 357 8,100 197 Climbing Jacksonville Center
Fri 15:15:26 32.3153 -80.8669 289° West 201 372 8,500 59 Climbing Jacksonville Center
Fri 15:19:26 32.3900 -81.1211 273° West 209 388 8,600 -12 Climbing Jacksonville Center
Fri 15:23:27 32.4017 -81.3669 70° East 189 349 8,400 -11 Descending Jacksonville Center
Fri 15:28:16 32.4958 -81.0650 111° Southeast 259 480 8,500 12 Climbing Jacksonville Center
Fri 15:31:28 32.4192 -80.8328 168° South 267 494 8,500 -29 Level Jacksonville Center
Fri 15:35:05 32.1842 -80.7717 212° Southwest 187 346 8,300 -15 Descending Jacksonville Center
Fri 15:38:17 32.1058 -80.8300 318° Northwest 167 309 8,400 -249 Climbing Jacksonville Center
Fri 15:41:55 32.2269 -80.9597 302° West 172 319 6,600 -187 Descending Jacksonville Center
Fri 15:46:18 32.3278 -81.1544 277° West 163 303 6,900 -33 Climbing Jacksonville Center
Fri 15:51:07 32.3519 -81.4072 179° South 149 275 6,300 -442 Descending Jacksonville Center
Fri 15:55:07 32.1850 -81.4050 106° East 162 299 3,000 -825 Descending Jacksonville Center
Fri 16:07:33 32.1344 -81.1997 106° East 1 2 -241 Descending Jacksonville Center

Login

Don't have an account? Register now (free) for customized features, flight alerts, and more!